Terminal Aerodrome Forecast
Issued by NWS Atlanta, GA

Home | Current Version | Previous Version | Text Only | Print | Product List | Glossary On
Versions: 1 2 3 4 5 6 7 8 9 10 11 12 13 14 15 16 17 18 19 20 21 22 23 24 25 26 27 28 29 30 31 32 33 34 35 36 37 38
273
FTUS42 KFFC 190931 AAB
TAFATL
TAF AMD
KATL 190931Z 1910/2012 11007KT 1SM -DZ BR OVC003
      TEMPO 1910/1913 1/2SM FG VV002
     FM191500 12007KT 6SM BR OVC007
     FM191700 13007KT P6SM BKN012
     FM192000 15008KT P6SM BKN025
     FM201000 13006KT 3SM BR BKN010
     FM201100 14006KT 2SM BR BKN007=

USA.gov is the U.S. government's official web portal to all federal, state and local government web resources and services.